createdAt,value
2023-03-16T00:00:19.751Z,7.28
2023-03-16T00:03:21.365Z,7.17
2023-03-16T00:06:25.532Z,7.11
2023-03-16T00:09:31.174Z,7.06
2023-03-16T00:12:34.846Z,6.90
2023-03-16T00:15:36.423Z,7.95
2023-03-16T00:18:40.908Z,8.05
2023-03-16T00:21:42.511Z,8.08
2023-03-16T00:24:44.053Z,8.08
2023-03-16T00:27:45.609Z,8.10
2023-03-16T00:30:47.436Z,8.19
2023-03-16T00:33:50.941Z,8.28
2023-03-16T00:36:52.458Z,8.33
2023-03-16T00:39:58.197Z,8.27
2023-03-16T00:42:59.867Z,8.13
2023-03-16T00:46:06.817Z,8.06
2023-03-16T00:49:09.477Z,8.02
2023-03-16T00:52:14.640Z,8.00
2023-03-16T00:55:16.245Z,8.00
2023-03-16T00:58:17.741Z,8.05
2023-03-16T01:01:20.812Z,7.94
2023-03-16T01:04:23.162Z,7.85
2023-03-16T01:07:24.821Z,7.75
2023-03-16T01:10:26.520Z,7.59
2023-03-16T01:13:28.536Z,7.52
2023-03-16T01:16:30.263Z,7.45
2023-03-16T01:19:35.702Z,7.46
2023-03-16T01:22:38.801Z,7.47
2023-03-16T01:25:41.266Z,7.44
2023-03-16T01:28:44.420Z,7.44
2023-03-16T01:31:46.015Z,7.51
2023-03-16T01:34:47.534Z,7.54
2023-03-16T01:37:50.283Z,7.51
2023-03-16T01:40:56.790Z,7.54
2023-03-16T01:43:59.697Z,7.52
2023-03-16T01:47:02.831Z,7.44
2023-03-16T01:50:06.036Z,7.33
2023-03-16T01:53:11.633Z,7.19
2023-03-16T01:56:18.556Z,7.27
2023-03-16T01:59:23.253Z,7.17
2023-03-16T02:02:30.816Z,7.17
2023-03-16T02:05:38.284Z,7.12
2023-03-16T02:08:42.846Z,7.15
2023-03-16T02:11:44.481Z,7.13
2023-03-16T02:14:49.585Z,7.11
2023-03-16T02:17:51.688Z,7.10
2023-03-16T02:21:19.526Z,7.11
2023-03-16T02:24:21.801Z,7.09
2023-03-16T02:28:08.596Z,6.95
2023-03-16T02:31:19.060Z,6.91
2023-03-16T02:34:21.483Z,6.81
2023-03-16T02:37:23.004Z,6.88
2023-03-16T02:40:32.891Z,6.88
2023-03-16T02:43:41.742Z,6.88
2023-03-16T02:47:03.166Z,6.87
2023-03-16T02:50:06.784Z,6.94
2023-03-16T02:53:08.514Z,6.96
2023-03-16T02:56:10.998Z,6.94
2023-03-16T02:59:12.685Z,6.92
2023-03-16T03:02:14.488Z,6.89
2023-03-16T03:05:16.000Z,6.84
2023-03-16T03:08:20.312Z,6.94
2023-03-16T03:11:21.958Z,6.96
2023-03-16T03:14:25.319Z,7.00
2023-03-16T03:17:30.262Z,6.99
2023-03-16T03:20:33.326Z,6.96
2023-03-16T03:23:37.656Z,6.92
2023-03-16T03:26:41.968Z,6.94
2023-03-16T03:29:50.690Z,6.94
2023-03-16T03:32:52.658Z,7.00
2023-03-16T03:35:58.027Z,7.05
2023-03-16T03:39:05.414Z,7.07
2023-03-16T03:42:08.707Z,7.08
2023-03-16T03:45:14.252Z,7.03
2023-03-16T03:48:15.788Z,7.00
2023-03-16T03:51:17.352Z,6.97
2023-03-16T03:54:37.999Z,6.93
2023-03-16T03:57:43.712Z,6.86
2023-03-16T04:00:45.293Z,6.81
2023-03-16T04:03:46.900Z,6.66
2023-03-16T04:06:51.525Z,6.63
2023-03-16T04:09:53.221Z,6.62
2023-03-16T04:13:10.025Z,6.42
2023-03-16T04:16:16.347Z,6.47
2023-03-16T04:19:21.292Z,6.52
2023-03-16T04:22:23.216Z,6.52
2023-03-16T04:25:27.299Z,6.50
2023-03-16T04:28:29.209Z,6.50
2023-03-16T04:31:31.942Z,6.48
2023-03-16T04:34:34.431Z,6.72
2023-03-16T04:37:39.068Z,6.80
2023-03-16T04:40:41.066Z,6.80
2023-03-16T04:43:50.672Z,6.77
2023-03-16T04:46:55.433Z,6.79
2023-03-16T04:49:59.000Z,6.77
2023-03-16T04:53:00.597Z,6.75
2023-03-16T04:56:04.257Z,6.73
2023-03-16T04:59:06.777Z,6.66
2023-03-16T05:02:20.108Z,6.67
2023-03-16T05:05:22.801Z,6.65
2023-03-16T05:08:24.583Z,6.69
2023-03-16T05:11:28.318Z,6.72
2023-03-16T05:14:35.993Z,6.72
2023-03-16T05:18:01.593Z,6.84
2023-03-16T05:21:04.155Z,6.87
2023-03-16T05:24:17.215Z,6.88
2023-03-16T05:27:18.836Z,6.99
2023-03-16T05:30:20.922Z,7.01
2023-03-16T05:33:25.580Z,7.10
2023-03-16T05:36:35.947Z,7.18
2023-03-16T05:39:43.220Z,7.23
2023-03-16T05:42:46.981Z,7.27
2023-03-16T05:45:48.749Z,7.38
2023-03-16T05:48:52.432Z,7.37
2023-03-16T05:51:55.731Z,7.39
2023-03-16T05:54:57.559Z,7.47
2023-03-16T05:57:59.498Z,7.39
2023-03-16T06:01:01.844Z,7.40
2023-03-16T06:04:05.620Z,7.52
2023-03-16T06:07:10.943Z,7.56
2023-03-16T06:10:13.790Z,7.67
2023-03-16T06:13:15.810Z,7.70
2023-03-16T06:16:17.934Z,7.95
2023-03-16T06:19:20.162Z,8.08
2023-03-16T06:22:26.290Z,8.15
2023-03-16T06:25:28.347Z,8.31
2023-03-16T06:28:30.532Z,8.40
2023-03-16T06:31:34.085Z,8.55
2023-03-16T06:34:38.225Z,8.81
2023-03-16T06:37:41.190Z,8.96
2023-03-16T06:40:57.491Z,9.09
2023-03-16T06:43:59.329Z,9.25
2023-03-16T06:47:02.051Z,9.24
2023-03-16T06:50:04.493Z,9.32
2023-03-16T06:53:06.299Z,9.47
2023-03-16T06:56:09.621Z,9.63
2023-03-16T06:59:15.288Z,9.71
2023-03-16T07:02:17.129Z,9.90
2023-03-16T07:05:18.967Z,10.10
2023-03-16T07:08:21.807Z,10.28
2023-03-16T07:11:23.536Z,10.49
2023-03-16T07:14:26.297Z,10.83
2023-03-16T07:17:30.100Z,11.26
2023-03-16T07:20:33.010Z,12.06
2023-03-16T07:23:37.471Z,12.12
2023-03-16T07:26:41.321Z,11.42
2023-03-16T07:29:43.967Z,11.66
2023-03-16T07:32:45.533Z,12.25
2023-03-16T07:35:47.208Z,12.17
2023-03-16T07:38:48.953Z,12.15
2023-03-16T07:41:51.300Z,12.18
2023-03-16T07:45:05.545Z,12.37
2023-03-16T07:48:07.279Z,12.40
2023-03-16T07:51:16.934Z,12.31
2023-03-16T07:54:22.418Z,12.49
2023-03-16T07:57:24.178Z,12.95
2023-03-16T08:00:26.064Z,13.14
2023-03-16T08:03:29.485Z,12.91
2023-03-16T08:06:31.311Z,12.67
2023-03-16T08:09:36.117Z,13.24
2023-03-16T08:12:40.454Z,13.15
2023-03-16T08:15:46.300Z,13.23
2023-03-16T08:18:59.710Z,13.55
2023-03-16T08:22:02.270Z,13.95
2023-03-16T08:25:12.337Z,14.23
2023-03-16T08:28:25.626Z,14.44
2023-03-16T08:31:30.334Z,14.58
2023-03-16T08:34:40.817Z,14.69
2023-03-16T08:37:43.975Z,14.75
2023-03-16T08:40:48.920Z,14.82
2023-03-16T08:43:53.136Z,14.86
2023-03-16T08:46:55.364Z,14.87
2023-03-16T08:49:57.584Z,14.87
2023-03-16T08:52:59.435Z,14.83
2023-03-16T08:56:06.311Z,14.91
2023-03-16T08:59:16.814Z,14.88
2023-03-16T09:02:25.650Z,15.01
2023-03-16T09:05:27.612Z,15.07
2023-03-16T09:08:30.258Z,15.05
2023-03-16T09:11:34.133Z,14.96
2023-03-16T09:14:38.450Z,15.16
2023-03-16T09:17:41.802Z,15.23
2023-03-16T09:20:43.823Z,15.05
2023-03-16T09:23:46.126Z,15.30
2023-03-16T09:26:47.731Z,16.24
2023-03-16T09:29:50.905Z,15.72
2023-03-16T09:32:52.646Z,15.52
2023-03-16T09:35:56.136Z,15.72
2023-03-16T09:38:57.752Z,15.77
2023-03-16T09:42:07.681Z,15.70
2023-03-16T09:45:19.054Z,15.80
2023-03-16T09:48:21.615Z,15.86
2023-03-16T09:51:43.658Z,15.64
2023-03-16T09:55:17.141Z,15.55
2023-03-16T09:58:21.527Z,15.55
2023-03-16T10:01:43.257Z,15.89
2023-03-16T10:05:09.724Z,15.84
2023-03-16T10:08:24.960Z,15.88
2023-03-16T10:11:33.522Z,16.07
2023-03-16T10:14:48.117Z,15.98
2023-03-16T10:18:11.828Z,15.61
2023-03-16T10:21:18.358Z,15.62
2023-03-16T10:24:39.760Z,15.38
2023-03-16T10:27:44.805Z,15.37
2023-03-16T10:30:50.122Z,15.24
2023-03-16T10:33:58.461Z,14.98
2023-03-16T10:37:02.997Z,14.66
2023-03-16T10:40:10.281Z,14.33
2023-03-16T10:43:13.910Z,14.00
2023-03-16T10:46:15.741Z,13.89
2023-03-16T10:49:27.824Z,13.95
2023-03-16T10:52:40.888Z,14.23
2023-03-16T10:55:45.748Z,14.77
2023-03-16T10:58:47.378Z,14.95
2023-03-16T11:01:52.320Z,15.00
2023-03-16T11:04:54.803Z,14.86
2023-03-16T11:08:12.165Z,15.07
2023-03-16T11:11:26.081Z,15.17
2023-03-16T11:14:28.762Z,15.35
2023-03-16T11:17:43.278Z,15.44
2023-03-16T11:20:45.708Z,15.48
2023-03-16T11:23:56.269Z,15.69
2023-03-16T11:27:01.709Z,15.91
2023-03-16T11:30:24.774Z,16.16
2023-03-16T11:33:27.542Z,16.21
2023-03-16T11:36:40.223Z,16.15
2023-03-16T11:40:14.252Z,16.06
2023-03-16T11:43:55.286Z,15.92
2023-03-16T11:47:18.257Z,15.98
2023-03-16T11:50:20.060Z,16.13
2023-03-16T11:53:27.444Z,15.89
2023-03-16T11:56:35.733Z,15.85
2023-03-16T12:00:03.295Z,16.00
2023-03-16T12:03:53.785Z,16.19
2023-03-16T12:07:04.970Z,16.11
2023-03-16T12:10:14.198Z,16.01
2023-03-16T12:13:22.900Z,15.96
2023-03-16T12:16:53.731Z,16.16
2023-03-16T12:20:05.677Z,16.14
2023-03-16T12:23:14.906Z,19.17
2023-03-16T12:26:19.207Z,19.62
2023-03-16T12:29:32.604Z,19.55
2023-03-16T12:32:46.803Z,19.64
2023-03-16T12:36:11.112Z,19.52
2023-03-16T12:39:23.094Z,19.58
2023-03-16T12:42:40.552Z,19.87
2023-03-16T12:45:48.234Z,20.29
2023-03-16T12:48:56.388Z,20.38
2023-03-16T12:52:07.041Z,20.37
2023-03-16T12:55:20.032Z,20.39
2023-03-16T12:58:24.819Z,20.47
2023-03-16T13:01:29.402Z,20.55
2023-03-16T13:04:33.799Z,20.41
2023-03-16T13:07:37.953Z,19.97
2023-03-16T13:10:39.417Z,20.43
2023-03-16T13:14:00.657Z,20.58
2023-03-16T13:17:27.249Z,20.52
2023-03-16T13:20:50.879Z,20.68
2023-03-16T13:23:59.839Z,20.60
2023-03-16T13:27:15.941Z,20.93
2023-03-16T13:30:23.601Z,21.08
2023-03-16T13:33:28.262Z,21.09
2023-03-16T13:36:31.977Z,21.19
2023-03-16T13:39:34.012Z,21.26
2023-03-16T13:42:36.782Z,21.30
2023-03-16T13:45:39.245Z,21.35
2023-03-16T13:48:41.820Z,21.26
2023-03-16T13:51:45.179Z,21.67
2023-03-16T13:54:47.310Z,21.92
2023-03-16T13:57:49.414Z,21.97
2023-03-16T14:00:55.836Z,22.20
2023-03-16T14:04:08.815Z,22.35
2023-03-16T14:07:19.722Z,22.39
2023-03-16T14:10:24.880Z,22.41
2023-03-16T14:13:29.728Z,22.23
2023-03-16T14:16:32.173Z,22.60
2023-03-16T14:19:43.814Z,23.23
2023-03-16T14:22:46.288Z,23.43
2023-03-16T14:25:49.297Z,23.40
2023-03-16T14:29:22.048Z,23.33
2023-03-16T14:32:30.364Z,23.32
2023-03-16T14:35:43.898Z,23.51
2023-03-16T14:38:54.329Z,23.67
2023-03-16T14:41:55.951Z,23.78
2023-03-16T14:45:07.556Z,23.98
2023-03-16T14:48:21.273Z,21.25
2023-03-16T14:51:22.843Z,20.53
2023-03-16T14:54:26.105Z,20.27
2023-03-16T14:57:27.710Z,20.15
2023-03-16T15:00:32.977Z,19.94
2023-03-16T15:03:37.949Z,19.61
2023-03-16T15:06:39.409Z,19.21
2023-03-16T15:09:46.004Z,19.10
2023-03-16T15:12:54.139Z,18.56
2023-03-16T15:15:55.760Z,18.42
2023-03-16T15:18:57.844Z,18.23
2023-03-16T15:22:01.713Z,18.55
2023-03-16T15:25:20.173Z,18.54
2023-03-16T15:28:23.767Z,18.52
2023-03-16T15:31:25.474Z,18.27
2023-03-16T15:34:27.504Z,18.03
2023-03-16T15:37:30.222Z,17.89
2023-03-16T15:40:32.658Z,17.74
2023-03-16T15:43:34.125Z,17.49
2023-03-16T15:46:36.372Z,17.28
2023-03-16T15:49:47.103Z,17.29
2023-03-16T15:52:58.037Z,17.40
2023-03-16T15:56:03.478Z,17.40
2023-03-16T15:59:06.567Z,17.45
2023-03-16T16:02:28.380Z,17.43
2023-03-16T16:05:30.907Z,17.36
2023-03-16T16:08:32.453Z,17.52
2023-03-16T16:11:34.038Z,17.53
2023-03-16T16:14:35.651Z,17.68
2023-03-16T16:17:53.797Z,17.93
2023-03-16T16:21:00.894Z,18.33
2023-03-16T16:24:03.148Z,18.62
2023-03-16T16:27:05.420Z,19.03
2023-03-16T16:30:28.571Z,22.56
2023-03-16T16:33:35.667Z,22.83
2023-03-16T16:36:37.326Z,22.66
2023-03-16T16:39:39.301Z,22.97
2023-03-16T16:42:41.470Z,24.07
2023-03-16T16:45:43.030Z,24.58
2023-03-16T16:48:49.973Z,24.51
2023-03-16T16:51:52.692Z,23.87
2023-03-16T16:54:54.191Z,23.25
2023-03-16T16:57:55.963Z,22.69
2023-03-16T17:00:58.960Z,21.64
2023-03-16T17:04:02.283Z,21.19
2023-03-16T17:07:06.496Z,20.49
2023-03-16T17:10:09.762Z,19.94
2023-03-16T17:13:26.565Z,20.62
2023-03-16T17:16:32.119Z,20.67
2023-03-16T17:19:33.761Z,20.39
2023-03-16T17:22:35.290Z,19.61
2023-03-16T17:25:36.969Z,18.69
2023-03-16T17:28:43.675Z,18.19
2023-03-16T17:31:45.255Z,18.01
2023-03-16T17:34:46.942Z,17.56
2023-03-16T17:37:48.771Z,17.35
2023-03-16T17:40:52.380Z,17.23
2023-03-16T17:43:57.204Z,16.93
2023-03-16T17:46:58.758Z,16.80
2023-03-16T17:50:01.054Z,16.60
2023-03-16T17:53:03.695Z,16.53
2023-03-16T17:56:19.940Z,16.47
2023-03-16T17:59:22.030Z,16.29
2023-03-16T18:02:38.629Z,16.11
2023-03-16T18:05:41.245Z,15.96
2023-03-16T18:08:42.761Z,15.88
2023-03-16T18:11:51.348Z,15.84
2023-03-16T18:14:58.414Z,15.68
2023-03-16T18:18:00.732Z,15.50
2023-03-16T18:21:02.829Z,15.33
2023-03-16T18:24:14.477Z,15.13
2023-03-16T18:27:16.210Z,15.05
2023-03-16T18:30:18.066Z,14.97
2023-03-16T18:33:33.660Z,14.99
2023-03-16T18:36:37.683Z,14.95
2023-03-16T18:39:39.526Z,14.85
2023-03-16T18:42:41.400Z,14.72
2023-03-16T18:45:45.917Z,14.42
2023-03-16T18:48:47.695Z,14.11
2023-03-16T18:51:51.988Z,14.08
2023-03-16T18:54:53.502Z,13.98
2023-03-16T18:57:57.436Z,13.76
2023-03-16T19:01:01.009Z,13.57
2023-03-16T19:04:02.920Z,13.72
2023-03-16T19:07:06.457Z,13.65
2023-03-16T19:10:16.187Z,13.72
2023-03-16T19:13:21.138Z,13.47
2023-03-16T19:16:23.234Z,13.67
2023-03-16T19:19:25.546Z,13.64
2023-03-16T19:22:27.356Z,13.77
2023-03-16T19:25:32.109Z,13.75
2023-03-16T19:28:37.125Z,13.58
2023-03-16T19:31:38.738Z,13.31
2023-03-16T19:34:40.244Z,13.20
2023-03-16T19:37:42.053Z,13.04
2023-03-16T19:40:44.036Z,12.99
2023-03-16T19:43:45.677Z,12.80
2023-03-16T19:46:48.873Z,12.62
2023-03-16T19:49:50.500Z,12.69
2023-03-16T19:52:52.573Z,12.79
2023-03-16T19:55:54.721Z,12.58
2023-03-16T19:58:56.396Z,12.39
2023-03-16T20:01:58.198Z,12.92
2023-03-16T20:04:59.705Z,13.64
2023-03-16T20:08:02.508Z,13.65
2023-03-16T20:11:14.003Z,13.55
2023-03-16T20:14:39.783Z,13.56
2023-03-16T20:17:43.263Z,13.53
2023-03-16T20:20:46.018Z,13.57
2023-03-16T20:23:48.056Z,13.52
2023-03-16T20:26:51.526Z,13.45
2023-03-16T20:29:53.151Z,13.40
2023-03-16T20:32:54.973Z,13.09
2023-03-16T20:35:57.051Z,12.97
2023-03-16T20:38:58.544Z,12.83
2023-03-16T20:42:00.308Z,12.54
2023-03-16T20:45:02.112Z,12.33
2023-03-16T20:48:13.659Z,12.23
2023-03-16T20:51:16.381Z,11.99
2023-03-16T20:54:17.906Z,12.06
2023-03-16T20:57:22.705Z,11.93
2023-03-16T21:00:36.415Z,11.95
2023-03-16T21:03:39.351Z,12.00
2023-03-16T21:06:41.341Z,12.09
2023-03-16T21:09:49.911Z,12.00
2023-03-16T21:12:55.351Z,12.06
2023-03-16T21:15:59.712Z,12.04
2023-03-16T21:19:01.272Z,11.85
2023-03-16T21:22:02.802Z,11.56
2023-03-16T21:25:04.689Z,11.59
2023-03-16T21:28:06.243Z,11.45
2023-03-16T21:31:08.374Z,11.54
2023-03-16T21:34:30.565Z,11.40
2023-03-16T21:37:32.074Z,11.10
2023-03-16T21:40:33.530Z,11.40
2023-03-16T21:43:35.497Z,11.53
2023-03-16T21:46:37.031Z,11.36
2023-03-16T21:49:39.464Z,11.38
2023-03-16T21:52:43.242Z,11.40
2023-03-16T21:55:44.821Z,11.51
2023-03-16T21:58:47.305Z,11.58
2023-03-16T22:02:01.271Z,11.61
2023-03-16T22:05:15.182Z,11.70
2023-03-16T22:08:22.983Z,11.71
2023-03-16T22:11:30.686Z,11.73
2023-03-16T22:14:32.482Z,11.69
2023-03-16T22:17:34.570Z,11.69
2023-03-16T22:20:36.535Z,11.66
2023-03-16T22:23:38.125Z,11.69
2023-03-16T22:26:39.825Z,11.68
2023-03-16T22:29:44.407Z,11.70
2023-03-16T22:33:03.396Z,11.74
2023-03-16T22:36:14.881Z,11.75
2023-03-16T22:39:16.624Z,11.78
2023-03-16T22:42:27.226Z,11.77
2023-03-16T22:45:31.352Z,11.84
2023-03-16T22:48:33.069Z,11.91
2023-03-16T22:51:37.001Z,11.90
2023-03-16T22:54:38.668Z,11.85
2023-03-16T22:57:40.351Z,11.74
2023-03-16T23:00:42.807Z,11.69
2023-03-16T23:03:49.637Z,11.75
2023-03-16T23:06:54.085Z,11.77
2023-03-16T23:09:55.961Z,11.74
2023-03-16T23:12:59.550Z,11.70
2023-03-16T23:16:01.298Z,11.64
2023-03-16T23:19:07.639Z,11.70
2023-03-16T23:22:14.497Z,11.73
2023-03-16T23:25:16.132Z,11.70
2023-03-16T23:28:23.110Z,11.63
2023-03-16T23:31:27.212Z,11.65
2023-03-16T23:34:28.744Z,11.72
2023-03-16T23:37:30.784Z,11.63
2023-03-16T23:40:36.551Z,11.53
2023-03-16T23:43:39.911Z,11.50
2023-03-16T23:46:42.083Z,11.31
2023-03-16T23:49:43.685Z,10.98
2023-03-16T23:52:45.426Z,11.22
2023-03-16T23:55:48.005Z,11.22
2023-03-16T23:58:50.072Z,11.30
